createdAt,value
2023-01-09T00:02:00.512Z,96.49
2023-01-09T00:04:27.339Z,96.53
2023-01-09T00:06:54.287Z,96.64
2023-01-09T00:09:22.161Z,96.59
2023-01-09T00:11:48.803Z,96.80
2023-01-09T00:14:16.663Z,96.84
2023-01-09T00:16:43.459Z,96.88
2023-01-09T00:19:10.532Z,96.89
2023-01-09T00:21:38.235Z,96.94
2023-01-09T00:24:05.223Z,96.97
2023-01-09T00:26:31.863Z,96.83
2023-01-09T00:28:58.570Z,96.87
2023-01-09T00:31:25.128Z,97.60
2023-01-09T00:33:57.788Z,97.49
2023-01-09T00:36:26.637Z,97.67
2023-01-09T00:38:53.188Z,97.73
2023-01-09T00:41:24.308Z,97.76
2023-01-09T00:43:55.191Z,97.60
2023-01-09T00:46:27.066Z,97.57
2023-01-09T00:48:53.789Z,97.59
2023-01-09T00:51:20.719Z,97.57
2023-01-09T00:53:49.346Z,97.64
2023-01-09T00:56:18.299Z,96.83
2023-01-09T00:58:45.584Z,96.76
2023-01-09T01:01:12.459Z,97.01
2023-01-09T01:03:39.623Z,97.30
2023-01-09T01:06:25.042Z,97.32
2023-01-09T01:08:51.581Z,97.48
2023-01-09T01:11:18.177Z,97.74
2023-01-09T01:13:44.783Z,97.48
2023-01-09T01:16:13.606Z,97.54
2023-01-09T01:18:41.038Z,96.98
2023-01-09T01:21:08.847Z,97.30
2023-01-09T01:23:36.339Z,97.57
2023-01-09T01:26:12.424Z,97.71
2023-01-09T01:28:39.557Z,97.68
2023-01-09T01:31:06.489Z,97.75
2023-01-09T01:33:34.087Z,97.61
2023-01-09T01:36:08.521Z,97.98
2023-01-09T01:38:35.863Z,98.47
2023-01-09T01:41:03.366Z,98.39
2023-01-09T01:43:50.094Z,98.09
2023-01-09T01:46:18.476Z,98.13
2023-01-09T01:48:46.675Z,97.92
2023-01-09T01:51:16.276Z,97.90
2023-01-09T01:53:51.618Z,97.95
2023-01-09T01:56:24.569Z,97.92
2023-01-09T01:59:05.305Z,98.09
2023-01-09T02:01:33.737Z,98.18
2023-01-09T02:04:02.149Z,98.39
2023-01-09T02:06:30.402Z,98.44
2023-01-09T02:08:57.403Z,98.55
2023-01-09T02:11:24.485Z,98.57
2023-01-09T02:13:52.087Z,98.38
2023-01-09T02:16:47.859Z,98.24
2023-01-09T02:19:23.277Z,98.29
2023-01-09T02:22:07.834Z,98.16
2023-01-09T02:25:00.584Z,97.95
2023-01-09T02:27:55.055Z,97.93
2023-01-09T02:30:40.175Z,98.10
2023-01-09T02:33:42.725Z,98.25
2023-01-09T02:36:22.179Z,98.36
2023-01-09T02:39:31.149Z,98.16
2023-01-09T02:42:08.725Z,98.19
2023-01-09T02:44:36.820Z,97.89
2023-01-09T02:47:16.974Z,97.56
2023-01-09T02:49:47.528Z,97.91
2023-01-09T02:52:34.313Z,97.97
2023-01-09T02:55:24.415Z,97.95
2023-01-09T02:58:16.099Z,97.89
2023-01-09T03:01:21.472Z,97.84
2023-01-09T03:03:54.176Z,97.88
2023-01-09T03:06:30.901Z,98.14
2023-01-09T03:09:05.318Z,97.90
2023-01-09T03:11:41.672Z,97.82
2023-01-09T03:14:13.737Z,98.22
2023-01-09T03:16:42.897Z,98.45
2023-01-09T03:19:15.720Z,98.53
2023-01-09T03:21:44.515Z,98.70
2023-01-09T03:24:11.061Z,98.87
2023-01-09T03:26:37.884Z,99.06
2023-01-09T03:29:04.675Z,99.03
2023-01-09T03:31:31.275Z,98.75
2023-01-09T03:33:57.797Z,98.61
2023-01-09T03:36:25.280Z,98.80
2023-01-09T03:38:51.963Z,99.01
2023-01-09T03:41:19.640Z,98.95
2023-01-09T03:43:48.341Z,98.93
2023-01-09T03:46:17.773Z,99.11
2023-01-09T03:48:44.684Z,99.15
2023-01-09T03:51:11.220Z,99.21
2023-01-09T03:53:37.964Z,99.27
2023-01-09T03:56:04.680Z,99.11
2023-01-09T03:58:31.340Z,98.93
2023-01-09T04:01:00.548Z,98.54
2023-01-09T04:03:27.446Z,98.26
2023-01-09T04:05:54.351Z,98.03
2023-01-09T04:08:21.461Z,97.51
2023-01-09T04:10:49.750Z,96.83
2023-01-09T04:13:16.928Z,96.81
2023-01-09T04:15:43.614Z,96.65
2023-01-09T04:18:10.170Z,96.67
2023-01-09T04:20:37.759Z,96.47
2023-01-09T04:23:04.597Z,96.31
2023-01-09T04:25:31.321Z,96.09
2023-01-09T04:27:57.831Z,95.96
2023-01-09T04:30:24.547Z,95.96
2023-01-09T04:32:52.199Z,96.56
2023-01-09T04:35:19.969Z,96.39
2023-01-09T04:37:46.569Z,96.62
2023-01-09T04:40:14.006Z,96.47
2023-01-09T04:42:41.623Z,96.41
2023-01-09T04:45:10.159Z,96.46
2023-01-09T04:47:37.005Z,96.40
2023-01-09T04:50:04.116Z,96.35
2023-01-09T04:52:30.991Z,96.08
2023-01-09T04:54:57.470Z,95.91
2023-01-09T04:57:24.071Z,95.68
2023-01-09T04:59:52.170Z,95.93
2023-01-09T05:02:18.841Z,95.84
2023-01-09T05:04:45.429Z,96.00
2023-01-09T05:07:12.065Z,96.16
2023-01-09T05:09:38.591Z,95.96
2023-01-09T05:12:05.479Z,96.12
2023-01-09T05:14:32.043Z,96.27
2023-01-09T05:16:58.951Z,96.23
2023-01-09T05:19:25.497Z,96.38
2023-01-09T05:21:52.069Z,96.68
2023-01-09T05:24:19.112Z,96.84
2023-01-09T05:26:45.984Z,96.67
2023-01-09T05:29:12.694Z,96.55
2023-01-09T05:31:39.251Z,96.62
2023-01-09T05:34:05.848Z,96.77
2023-01-09T05:36:32.479Z,96.40
2023-01-09T05:39:00.243Z,96.39
2023-01-09T05:41:26.861Z,96.47
2023-01-09T05:43:53.717Z,96.56
2023-01-09T05:46:20.238Z,96.93
2023-01-09T05:48:46.829Z,97.26
2023-01-09T05:51:13.350Z,97.60
2023-01-09T05:53:39.984Z,97.73
2023-01-09T05:56:06.935Z,97.66
2023-01-09T05:58:33.485Z,97.77
2023-01-09T06:01:00.075Z,97.97
2023-01-09T06:03:26.701Z,97.98
2023-01-09T06:05:53.203Z,98.09
2023-01-09T06:08:20.669Z,98.22
2023-01-09T06:10:48.060Z,98.41
2023-01-09T06:13:14.692Z,98.44
2023-01-09T06:15:41.303Z,98.51
2023-01-09T06:18:08.074Z,98.71
2023-01-09T06:20:35.000Z,98.63
2023-01-09T06:23:02.149Z,98.92
2023-01-09T06:25:28.654Z,99.02
2023-01-09T06:27:55.255Z,99.31
2023-01-09T06:30:21.989Z,99.28
2023-01-09T06:32:49.253Z,99.26
2023-01-09T06:35:20.302Z,99.16
2023-01-09T06:37:47.868Z,99.29
2023-01-09T06:40:14.915Z,99.28
2023-01-09T06:42:48.383Z,99.35
2023-01-09T06:45:15.507Z,99.27
2023-01-09T06:47:42.352Z,99.25
2023-01-09T06:50:10.774Z,99.30
2023-01-09T06:52:37.399Z,99.41
2023-01-09T06:55:04.817Z,99.24
2023-01-09T06:57:31.379Z,99.29
2023-01-09T06:59:58.044Z,99.20
2023-01-09T07:02:24.891Z,99.33
2023-01-09T07:04:51.546Z,98.82
2023-01-09T07:07:19.629Z,98.68
2023-01-09T07:09:46.896Z,98.50
2023-01-09T07:12:15.339Z,98.39
2023-01-09T07:14:42.016Z,98.30
2023-01-09T07:17:09.848Z,98.35
2023-01-09T07:19:36.465Z,98.29
2023-01-09T07:22:02.959Z,98.23
2023-01-09T07:24:29.427Z,98.14
2023-01-09T07:26:56.035Z,98.24
2023-01-09T07:29:22.521Z,98.49
2023-01-09T07:31:49.219Z,98.35
2023-01-09T07:34:15.938Z,98.83
2023-01-09T07:36:46.314Z,98.70
2023-01-09T07:39:13.692Z,98.45
2023-01-09T07:41:40.685Z,98.78
2023-01-09T07:44:09.526Z,98.61
2023-01-09T07:46:37.428Z,98.25
2023-01-09T07:49:04.098Z,98.31
2023-01-09T07:51:30.662Z,98.44
2023-01-09T07:53:57.416Z,98.60
2023-01-09T07:56:24.060Z,98.51
2023-01-09T07:58:50.895Z,98.87
2023-01-09T08:01:17.690Z,98.67
2023-01-09T08:03:44.340Z,99.00
2023-01-09T08:06:11.224Z,99.19
2023-01-09T08:08:37.909Z,99.29
2023-01-09T08:11:04.665Z,99.28
2023-01-09T08:13:31.325Z,99.50
2023-01-09T08:15:57.908Z,99.48
2023-01-09T08:18:24.406Z,99.19
2023-01-09T08:20:51.024Z,99.28
2023-01-09T08:23:17.584Z,99.44
2023-01-09T08:25:44.157Z,99.44
2023-01-09T08:28:10.811Z,99.60
2023-01-09T08:30:38.615Z,99.73
2023-01-09T08:33:05.282Z,99.68
2023-01-09T08:35:31.836Z,99.83
2023-01-09T08:37:58.777Z,99.76
2023-01-09T08:40:25.468Z,99.70
2023-01-09T08:43:10.329Z,99.82
2023-01-09T08:46:15.789Z,99.76
2023-01-09T08:48:43.567Z,99.85
2023-01-09T08:51:11.035Z,99.62
2023-01-09T08:53:37.999Z,99.71
2023-01-09T08:56:04.679Z,99.74
2023-01-09T08:58:31.641Z,99.74
2023-01-09T09:01:01.018Z,99.64
2023-01-09T09:03:27.572Z,99.37
2023-01-09T09:05:54.406Z,99.04
2023-01-09T09:08:21.211Z,99.12
2023-01-09T09:10:47.778Z,99.25
2023-01-09T09:13:14.393Z,99.35
2023-01-09T09:15:41.002Z,99.52
2023-01-09T09:18:09.169Z,99.05
2023-01-09T09:20:38.228Z,98.82
2023-01-09T09:23:05.661Z,98.62
2023-01-09T09:25:32.412Z,99.15
2023-01-09T09:28:01.000Z,99.45
2023-01-09T09:30:28.058Z,99.32
2023-01-09T09:32:54.991Z,99.54
2023-01-09T09:35:22.493Z,99.60
2023-01-09T09:37:57.447Z,99.52
2023-01-09T09:40:38.339Z,99.57
2023-01-09T09:44:01.794Z,99.13
2023-01-09T09:46:42.364Z,99.44
2023-01-09T09:49:17.493Z,99.56
2023-01-09T09:51:56.297Z,99.26
2023-01-09T09:54:47.920Z,98.92
2023-01-09T09:57:19.113Z,99.20
2023-01-09T09:59:51.131Z,99.20
2023-01-09T10:02:25.840Z,99.12
2023-01-09T10:05:12.278Z,99.13
2023-01-09T10:07:44.849Z,98.77
2023-01-09T10:10:40.215Z,98.57
2023-01-09T10:13:27.929Z,98.53
2023-01-09T10:16:05.772Z,98.16
2023-01-09T10:18:49.888Z,98.32
2023-01-09T10:21:39.428Z,97.65
2023-01-09T10:24:15.580Z,97.79
2023-01-09T10:26:48.536Z,97.62
2023-01-09T10:29:41.578Z,97.16
2023-01-09T10:32:35.597Z,97.21
2023-01-09T10:35:33.022Z,96.53
2023-01-09T10:38:04.133Z,95.47
2023-01-09T10:40:37.003Z,96.00
2023-01-09T10:43:14.652Z,96.69
2023-01-09T10:45:47.602Z,97.09
2023-01-09T10:48:29.573Z,96.63
2023-01-09T10:50:56.883Z,97.10
2023-01-09T10:53:28.828Z,96.98
2023-01-09T10:56:02.123Z,97.44
2023-01-09T10:58:29.453Z,97.40
2023-01-09T11:00:56.974Z,96.86
2023-01-09T11:03:25.168Z,97.13
2023-01-09T11:05:58.200Z,97.02
2023-01-09T11:08:41.872Z,97.48
2023-01-09T11:11:09.973Z,97.45
2023-01-09T11:13:38.439Z,97.57
2023-01-09T11:16:07.840Z,97.29
2023-01-09T11:18:38.485Z,97.61
2023-01-09T11:21:27.686Z,97.53
2023-01-09T11:24:14.620Z,97.33
2023-01-09T11:26:41.123Z,96.92
2023-01-09T11:29:15.642Z,96.86
2023-01-09T11:31:50.347Z,97.32
2023-01-09T11:34:19.370Z,97.20
2023-01-09T11:36:47.102Z,96.84
2023-01-09T11:39:25.922Z,96.88
2023-01-09T11:41:58.927Z,96.99
2023-01-09T11:44:26.931Z,96.43
2023-01-09T11:46:53.787Z,96.21
2023-01-09T11:49:25.171Z,96.41
2023-01-09T11:52:17.451Z,96.05
2023-01-09T11:55:04.274Z,95.41
2023-01-09T11:57:32.165Z,95.67
2023-01-09T12:00:02.771Z,95.45
2023-01-09T12:03:11.259Z,95.51
2023-01-09T12:05:49.358Z,95.34
2023-01-09T12:08:34.917Z,95.97
2023-01-09T12:11:29.480Z,93.18
2023-01-09T12:14:20.611Z,92.16
2023-01-09T12:16:59.054Z,93.36
2023-01-09T12:19:50.943Z,92.43
2023-01-09T12:22:35.998Z,91.66
2023-01-09T12:25:30.860Z,88.80
2023-01-09T12:28:03.401Z,89.08
2023-01-09T12:30:54.647Z,89.33
2023-01-09T12:33:27.397Z,91.03
2023-01-09T12:36:09.665Z,90.95
2023-01-09T12:38:52.800Z,90.68
2023-01-09T12:41:45.368Z,92.01
2023-01-09T12:44:35.910Z,91.63
2023-01-09T12:47:24.933Z,92.08
2023-01-09T12:50:03.781Z,91.46
2023-01-09T12:52:40.421Z,92.07
2023-01-09T12:55:18.168Z,91.13
2023-01-09T12:57:48.540Z,91.45
2023-01-09T13:00:21.186Z,91.37
2023-01-09T13:03:12.212Z,91.70
2023-01-09T13:05:44.378Z,91.38
2023-01-09T13:08:36.101Z,92.32
2023-01-09T13:11:20.691Z,91.74
2023-01-09T13:14:21.984Z,91.52
2023-01-09T13:16:52.385Z,91.39
2023-01-09T13:19:31.332Z,90.58
2023-01-09T13:21:58.835Z,91.71
2023-01-09T13:24:38.763Z,92.21
2023-01-09T13:27:17.890Z,91.32
2023-01-09T13:29:48.187Z,90.93
2023-01-09T13:32:17.481Z,90.20
2023-01-09T13:34:47.506Z,90.45
2023-01-09T13:37:27.109Z,90.79
2023-01-09T13:39:59.138Z,89.92
2023-01-09T13:42:45.099Z,90.10
2023-01-09T13:45:17.609Z,89.44
2023-01-09T13:47:45.048Z,90.27
2023-01-09T13:50:11.656Z,90.98
2023-01-09T13:52:44.554Z,91.27
2023-01-09T13:55:11.116Z,91.66
2023-01-09T13:57:42.323Z,92.25
2023-01-09T14:00:11.904Z,91.71
2023-01-09T14:02:38.466Z,91.48
2023-01-09T14:05:14.007Z,92.24
2023-01-09T14:07:45.401Z,92.90
2023-01-09T14:10:21.099Z,93.14
2023-01-09T14:12:48.312Z,92.33
2023-01-09T14:15:39.344Z,92.61
2023-01-09T14:18:14.555Z,93.12
2023-01-09T14:20:49.967Z,91.16
2023-01-09T14:26:23.829Z,90.69
2023-01-09T14:28:50.843Z,90.11
2023-01-09T14:31:28.303Z,90.48
2023-01-09T14:34:36.689Z,90.08
2023-01-09T14:37:04.338Z,89.61
2023-01-09T14:39:32.267Z,89.96
2023-01-09T14:42:07.949Z,90.72
2023-01-09T14:45:21.689Z,91.43
2023-01-09T14:47:54.663Z,91.25
2023-01-09T14:50:30.402Z,90.70
2023-01-09T14:53:07.994Z,90.59
2023-01-09T14:55:55.107Z,90.85
2023-01-09T14:58:27.002Z,90.39
2023-01-09T15:01:01.817Z,91.16
2023-01-09T15:03:38.424Z,91.97
2023-01-09T15:06:06.240Z,92.51
2023-01-09T15:08:33.383Z,92.36
2023-01-09T15:11:00.424Z,92.31
2023-01-09T15:13:41.144Z,92.15
2023-01-09T15:16:17.496Z,92.29
2023-01-09T15:18:46.967Z,92.85
2023-01-09T15:21:21.685Z,91.51
2023-01-09T15:23:48.267Z,91.48
2023-01-09T15:26:29.120Z,91.78
2023-01-09T15:29:10.029Z,92.78
2023-01-09T15:31:39.612Z,93.67
2023-01-09T15:34:06.885Z,93.89
2023-01-09T15:36:37.354Z,94.45
2023-01-09T15:39:06.977Z,94.81
2023-01-09T15:41:52.071Z,94.99
2023-01-09T15:44:23.567Z,95.56
2023-01-09T15:46:50.891Z,95.60
2023-01-09T15:49:19.390Z,95.86
2023-01-09T15:51:47.296Z,95.84
2023-01-09T15:54:16.447Z,95.96
2023-01-09T15:56:45.537Z,96.14
2023-01-09T15:59:28.704Z,96.38
2023-01-09T16:02:24.629Z,96.46
2023-01-09T16:04:53.881Z,96.54
2023-01-09T16:07:20.996Z,96.58
2023-01-09T16:09:52.553Z,96.95
2023-01-09T16:12:24.839Z,96.89
2023-01-09T16:14:58.543Z,96.85
2023-01-09T16:17:26.804Z,96.92
2023-01-09T16:19:54.710Z,96.76
2023-01-09T16:22:29.948Z,96.57
2023-01-09T16:24:58.768Z,96.43
2023-01-09T16:27:27.177Z,96.48
2023-01-09T16:30:04.433Z,96.65
2023-01-09T16:32:33.810Z,96.86
2023-01-09T16:35:06.681Z,96.96
2023-01-09T16:37:34.165Z,97.01
2023-01-09T16:40:00.981Z,97.25
2023-01-09T16:42:46.305Z,97.21
2023-01-09T16:45:12.875Z,97.23
2023-01-09T16:47:39.415Z,97.03
2023-01-09T16:50:06.260Z,97.12
2023-01-09T16:52:32.731Z,97.00
2023-01-09T16:54:59.236Z,97.27
2023-01-09T16:57:26.111Z,97.68
2023-01-09T16:59:52.650Z,97.87
2023-01-09T17:02:20.502Z,98.06
2023-01-09T17:04:47.309Z,98.04
2023-01-09T17:07:15.449Z,98.06
2023-01-09T17:09:43.374Z,98.27
2023-01-09T17:12:19.703Z,98.38
2023-01-09T17:14:47.598Z,98.61
2023-01-09T17:17:14.356Z,98.43
2023-01-09T17:19:41.923Z,98.66
2023-01-09T17:22:09.230Z,98.77
2023-01-09T17:24:54.352Z,99.17
2023-01-09T17:27:46.874Z,99.65
2023-01-09T17:30:18.680Z,99.87
2023-01-09T17:32:45.872Z,99.85
2023-01-09T17:35:13.038Z,99.82
2023-01-09T17:37:39.638Z,99.96
2023-01-09T17:40:22.258Z,99.92
2023-01-09T17:42:48.896Z,99.94
2023-01-09T17:45:15.789Z,99.73
2023-01-09T17:47:42.451Z,99.65
2023-01-09T17:50:18.370Z,99.76
2023-01-09T17:52:45.007Z,99.76
2023-01-09T17:55:11.620Z,99.68
2023-01-09T17:57:38.610Z,99.74
2023-01-09T18:00:06.344Z,99.72
2023-01-09T18:02:33.012Z,99.61
2023-01-09T18:04:59.768Z,99.59
2023-01-09T18:07:26.379Z,99.58
2023-01-09T18:09:53.406Z,99.56
2023-01-09T18:12:20.036Z,99.57
2023-01-09T18:14:47.925Z,99.58
2023-01-09T18:17:14.593Z,99.61
2023-01-09T18:19:41.216Z,99.53
2023-01-09T18:22:07.791Z,99.56
2023-01-09T18:24:34.739Z,99.54
2023-01-09T18:27:01.391Z,99.79
2023-01-09T18:29:27.956Z,99.62
2023-01-09T18:31:54.571Z,99.49
2023-01-09T18:34:21.269Z,99.61
2023-01-09T18:36:47.842Z,99.62
2023-01-09T18:39:14.618Z,99.74
2023-01-09T18:41:41.164Z,98.99
2023-01-09T18:44:08.560Z,98.32
2023-01-09T18:46:38.186Z,96.78
2023-01-09T18:49:05.319Z,96.31
2023-01-09T18:51:34.618Z,96.32
2023-01-09T18:54:01.496Z,95.64
2023-01-09T18:56:28.313Z,95.59
2023-01-09T18:58:59.433Z,94.98
2023-01-09T19:01:28.486Z,93.14
2023-01-09T19:03:55.855Z,92.86
2023-01-09T19:06:22.878Z,92.25
2023-01-09T19:08:49.516Z,92.01
2023-01-09T19:11:16.240Z,92.24
2023-01-09T19:13:42.816Z,91.99
2023-01-09T19:16:09.848Z,91.70
2023-01-09T19:18:39.407Z,90.69
2023-01-09T19:21:10.925Z,91.02
2023-01-09T19:23:37.452Z,91.41
2023-01-09T19:26:06.094Z,90.95
2023-01-09T19:28:32.645Z,90.28
2023-01-09T19:30:59.110Z,90.56
2023-01-09T19:33:25.732Z,91.07
2023-01-09T19:35:53.081Z,90.48
2023-01-09T19:38:20.519Z,90.06
2023-01-09T19:40:47.038Z,90.36
2023-01-09T19:43:25.657Z,90.36
2023-01-09T19:45:56.377Z,89.97
2023-01-09T19:48:24.373Z,89.84
2023-01-09T19:50:51.007Z,90.15
2023-01-09T19:53:17.548Z,90.60
2023-01-09T19:55:44.032Z,90.68
2023-01-09T19:58:10.996Z,89.87
2023-01-09T20:00:37.585Z,89.84
2023-01-09T20:03:04.361Z,89.44
2023-01-09T20:05:31.028Z,90.08
2023-01-09T20:07:57.609Z,89.97
2023-01-09T20:10:24.330Z,89.36
2023-01-09T20:12:51.486Z,89.72
2023-01-09T20:15:18.136Z,89.53
2023-01-09T20:17:44.776Z,89.05
2023-01-09T20:20:11.564Z,89.41
2023-01-09T20:22:38.077Z,89.41
2023-01-09T20:25:04.919Z,89.29
2023-01-09T20:27:31.437Z,89.70
2023-01-09T20:29:57.968Z,90.18
2023-01-09T20:32:24.483Z,90.80
2023-01-09T20:34:51.011Z,91.07
2023-01-09T20:37:17.553Z,91.39
2023-01-09T20:39:44.091Z,91.71
2023-01-09T20:42:11.646Z,91.51
2023-01-09T20:44:38.136Z,92.19
2023-01-09T20:47:04.750Z,92.67
2023-01-09T20:49:31.296Z,93.05
2023-01-09T20:51:58.253Z,93.61
2023-01-09T20:54:25.305Z,94.23
2023-01-09T20:56:51.956Z,94.24
2023-01-09T20:59:20.772Z,94.41
2023-01-09T21:01:47.996Z,93.62
2023-01-09T21:04:14.891Z,93.06
2023-01-09T21:06:42.423Z,92.50
2023-01-09T21:09:09.264Z,92.50
2023-01-09T21:11:35.991Z,92.66
2023-01-09T21:14:02.564Z,91.87
2023-01-09T21:16:29.446Z,91.89
2023-01-09T21:18:56.087Z,92.13
2023-01-09T21:21:24.778Z,92.41
2023-01-09T21:23:53.784Z,91.78
2023-01-09T21:26:24.327Z,92.04
2023-01-09T21:28:54.877Z,91.67
2023-01-09T21:31:25.742Z,91.04
2023-01-09T21:33:54.380Z,90.85
2023-01-09T21:36:21.394Z,90.67
2023-01-09T21:38:48.513Z,90.12
2023-01-09T21:41:37.321Z,90.72
2023-01-09T21:44:22.746Z,89.92
2023-01-09T21:46:52.765Z,89.77
2023-01-09T21:49:20.225Z,89.46
2023-01-09T21:51:47.348Z,89.83
2023-01-09T21:54:15.271Z,89.77
2023-01-09T21:56:41.834Z,90.11
2023-01-09T21:59:10.013Z,90.19
2023-01-09T22:01:36.583Z,90.50
2023-01-09T22:04:03.657Z,90.00
2023-01-09T22:06:31.313Z,90.01
2023-01-09T22:08:57.974Z,89.59
2023-01-09T22:11:24.554Z,89.95
2023-01-09T22:13:52.049Z,89.88
2023-01-09T22:16:19.050Z,89.78
2023-01-09T22:18:45.750Z,90.15
2023-01-09T22:21:12.379Z,90.26
2023-01-09T22:23:39.042Z,89.57
2023-01-09T22:26:13.299Z,90.55
2023-01-09T22:28:40.676Z,90.78
2023-01-09T22:31:13.743Z,90.53
2023-01-09T22:33:40.305Z,89.98
2023-01-09T22:36:09.930Z,90.80
2023-01-09T22:38:36.981Z,89.68
2023-01-09T22:41:04.581Z,89.68
2023-01-09T22:43:31.308Z,89.59
2023-01-09T22:46:02.190Z,89.70
2023-01-09T22:48:34.536Z,89.84
2023-01-09T22:51:02.060Z,89.90
2023-01-09T22:53:29.655Z,89.66
2023-01-09T22:56:04.653Z,89.74
2023-01-09T22:58:32.001Z,89.86
2023-01-09T23:00:58.623Z,89.91
2023-01-09T23:03:25.958Z,90.16
2023-01-09T23:06:05.866Z,90.13
2023-01-09T23:08:33.999Z,90.24
2023-01-09T23:11:02.106Z,90.29
2023-01-09T23:13:28.795Z,90.40
2023-01-09T23:15:55.657Z,89.91
2023-01-09T23:18:22.831Z,90.11
2023-01-09T23:21:00.556Z,90.46
2023-01-09T23:23:29.137Z,90.35
2023-01-09T23:25:58.393Z,90.60
2023-01-09T23:28:26.270Z,90.15
2023-01-09T23:30:53.538Z,90.21
2023-01-09T23:33:23.060Z,90.73
2023-01-09T23:35:49.629Z,90.25
2023-01-09T23:38:16.280Z,90.60
2023-01-09T23:40:42.982Z,90.46
2023-01-09T23:43:11.171Z,90.16
2023-01-09T23:45:43.484Z,90.62
2023-01-09T23:48:12.717Z,90.28
2023-01-09T23:50:42.704Z,90.70
2023-01-09T23:53:09.455Z,90.65
2023-01-09T23:55:37.140Z,90.96
2023-01-09T23:58:03.988Z,90.96
